createdAt,value
2023-03-27T00:01:38.561Z,4.45
2023-03-27T00:04:09.062Z,4.57
2023-03-27T00:06:37.707Z,3.50
2023-03-27T00:09:08.328Z,3.92
2023-03-27T00:11:36.960Z,3.10
2023-03-27T00:14:05.567Z,3.30
2023-03-27T00:16:33.907Z,3.63
2023-03-27T00:19:03.934Z,3.95
2023-03-27T00:21:32.499Z,4.70
2023-03-27T00:24:00.894Z,2.83
2023-03-27T00:26:30.554Z,3.30
2023-03-27T00:28:59.112Z,3.40
2023-03-27T00:31:27.451Z,3.88
2023-03-27T00:33:56.022Z,2.88
2023-03-27T00:36:26.363Z,2.78
2023-03-27T00:38:54.856Z,3.95
2023-03-27T00:41:23.489Z,4.28
2023-03-27T00:43:54.354Z,3.03
2023-03-27T00:46:35.846Z,4.85
2023-03-27T00:49:10.171Z,2.63
2023-03-27T00:51:42.100Z,2.60
2023-03-27T00:54:11.713Z,2.50
2023-03-27T00:56:40.290Z,2.85
2023-03-27T00:59:13.105Z,2.70
2023-03-27T01:01:43.691Z,2.38
2023-03-27T01:04:12.542Z,2.65
2023-03-27T01:06:44.615Z,2.72
2023-03-27T01:09:20.334Z,2.95
2023-03-27T01:12:02.093Z,1.80
2023-03-27T01:14:39.153Z,1.85
2023-03-27T01:17:27.281Z,2.75
2023-03-27T01:20:53.866Z,2.05
2023-03-27T01:24:15.598Z,2.03
2023-03-27T01:27:07.992Z,2.55
2023-03-27T01:29:57.665Z,1.95
2023-03-27T01:33:25.186Z,2.38
2023-03-27T01:36:19.268Z,1.52
2023-03-27T01:39:32.645Z,2.10
2023-03-27T01:42:09.685Z,1.52
2023-03-27T01:44:46.566Z,1.60
2023-03-27T01:47:31.365Z,2.13
2023-03-27T01:50:09.895Z,1.65
2023-03-27T01:52:41.899Z,1.58
2023-03-27T01:55:19.093Z,1.80
2023-03-27T01:57:53.068Z,1.23
2023-03-27T02:00:24.576Z,1.52
2023-03-27T02:03:11.143Z,1.50
2023-03-27T02:05:44.114Z,1.17
2023-03-27T02:08:18.364Z,0.68
2023-03-27T02:10:52.493Z,1.27
2023-03-27T02:13:26.981Z,2.03
2023-03-27T02:15:58.885Z,0.93
2023-03-27T02:18:33.294Z,1.50
2023-03-27T02:21:03.133Z,0.63
2023-03-27T02:23:33.717Z,1.08
2023-03-27T02:26:03.619Z,1.10
2023-03-27T02:28:55.289Z,1.42
2023-03-27T02:31:41.110Z,1.58
2023-03-27T02:34:39.279Z,0.88
2023-03-27T02:37:19.224Z,1.70
2023-03-27T02:40:15.649Z,1.25
2023-03-27T02:43:02.183Z,1.17
2023-03-27T02:45:39.300Z,1.15
2023-03-27T02:48:16.172Z,1.17
2023-03-27T02:50:51.249Z,0.90
2023-03-27T02:53:23.698Z,1.10
2023-03-27T02:55:57.218Z,1.48
2023-03-27T02:58:35.406Z,1.15
2023-03-27T03:01:19.165Z,0.98
2023-03-27T03:04:11.487Z,1.00
2023-03-27T03:07:06.561Z,1.02
2023-03-27T03:09:40.685Z,1.33
2023-03-27T03:12:10.768Z,1.02
2023-03-27T03:14:45.406Z,1.05
2023-03-27T03:17:15.063Z,0.98
2023-03-27T03:19:43.487Z,0.82
2023-03-27T03:22:11.984Z,0.77
2023-03-27T03:24:43.744Z,0.68
2023-03-27T03:27:15.597Z,1.27
2023-03-27T03:29:51.850Z,0.65
2023-03-27T03:32:22.894Z,0.90
2023-03-27T03:34:53.577Z,1.23
2023-03-27T03:37:22.266Z,0.68
2023-03-27T03:39:52.086Z,0.50
2023-03-27T03:42:22.377Z,0.60
2023-03-27T03:44:54.203Z,0.93
2023-03-27T03:47:24.411Z,0.38
2023-03-27T03:49:52.728Z,0.90
2023-03-27T03:52:21.291Z,0.77
2023-03-27T03:54:49.851Z,0.80
2023-03-27T03:57:18.395Z,1.17
2023-03-27T04:00:01.059Z,0.38
2023-03-27T04:02:45.500Z,0.93
2023-03-27T04:05:17.064Z,0.75
2023-03-27T04:07:45.962Z,0.73
2023-03-27T04:10:33.207Z,0.45
2023-03-27T04:13:05.180Z,1.13
2023-03-27T04:15:39.312Z,0.73
2023-03-27T04:18:10.837Z,0.60
2023-03-27T04:20:41.223Z,1.10
2023-03-27T04:23:13.845Z,1.00
2023-03-27T04:25:42.654Z,1.20
2023-03-27T04:28:16.678Z,0.63
2023-03-27T04:30:50.793Z,0.93
2023-03-27T04:33:31.530Z,0.88
2023-03-27T04:36:14.668Z,0.88
2023-03-27T04:38:50.361Z,0.93
2023-03-27T04:41:19.342Z,0.70
2023-03-27T04:43:47.862Z,1.33
2023-03-27T04:46:17.504Z,1.08
2023-03-27T04:48:46.310Z,0.77
2023-03-27T04:51:32.479Z,1.48
2023-03-27T04:54:04.772Z,1.27
2023-03-27T04:56:35.085Z,1.30
2023-03-27T04:59:06.361Z,2.05
2023-03-27T05:01:36.353Z,1.27
2023-03-27T05:04:26.276Z,1.48
2023-03-27T05:07:12.112Z,0.45
2023-03-27T05:09:40.807Z,0.82
2023-03-27T05:12:10.702Z,0.82
2023-03-27T05:14:49.485Z,0.40
2023-03-27T05:17:40.706Z,0.52
2023-03-27T05:20:14.442Z,0.80
2023-03-27T05:22:43.559Z,1.98
2023-03-27T05:25:24.527Z,1.10
2023-03-27T05:27:54.916Z,0.90
2023-03-27T05:30:27.366Z,0.90
2023-03-27T05:33:13.929Z,1.10
2023-03-27T05:35:43.205Z,0.88
2023-03-27T05:38:12.522Z,1.30
2023-03-27T05:40:47.512Z,1.27
2023-03-27T05:43:18.962Z,1.00
2023-03-27T05:45:47.276Z,0.50
2023-03-27T05:48:17.361Z,0.60
2023-03-27T05:50:46.862Z,0.85
2023-03-27T05:53:20.768Z,0.68
2023-03-27T05:56:17.194Z,0.70
2023-03-27T05:58:54.561Z,1.00
2023-03-27T06:01:24.072Z,0.70
2023-03-27T06:03:56.420Z,0.98
2023-03-27T06:06:41.840Z,0.70
2023-03-27T06:09:12.615Z,1.35
2023-03-27T06:11:44.841Z,0.50
2023-03-27T06:14:13.480Z,1.38
2023-03-27T06:17:06.398Z,2.90
2023-03-27T06:19:46.678Z,1.77
2023-03-27T06:22:15.302Z,1.08
2023-03-27T06:24:45.656Z,1.02
2023-03-27T06:27:20.529Z,0.60
2023-03-27T06:29:49.359Z,1.23
2023-03-27T06:32:17.897Z,1.48
2023-03-27T06:37:55.729Z,0.63
2023-03-27T06:40:28.459Z,1.23
2023-03-27T06:43:03.816Z,1.20
2023-03-27T06:45:42.951Z,1.25
2023-03-27T06:48:21.392Z,2.38
2023-03-27T06:50:54.005Z,1.85
2023-03-27T06:53:27.900Z,1.73
2023-03-27T06:55:58.433Z,3.42
2023-03-27T06:58:28.505Z,1.55
2023-03-27T07:00:57.186Z,1.40
2023-03-27T07:03:37.500Z,2.70
2023-03-27T07:06:27.083Z,1.63
2023-03-27T07:09:01.786Z,1.48
2023-03-27T07:11:31.968Z,1.85
2023-03-27T07:14:05.178Z,1.25
2023-03-27T07:16:33.848Z,1.25
2023-03-27T07:19:02.750Z,1.40
2023-03-27T07:21:35.268Z,1.30
2023-03-27T07:24:03.684Z,1.40
2023-03-27T07:26:34.665Z,1.33
2023-03-27T07:29:10.517Z,1.50
2023-03-27T07:31:55.752Z,2.05
2023-03-27T07:34:49.097Z,1.70
2023-03-27T07:37:50.482Z,1.83
2023-03-27T07:40:51.115Z,2.05
2023-03-27T07:43:45.794Z,1.95
2023-03-27T07:46:14.507Z,1.25
2023-03-27T07:48:43.056Z,0.90
2023-03-27T07:51:17.719Z,2.30
2023-03-27T07:53:49.154Z,1.67
2023-03-27T07:56:23.375Z,1.35
2023-03-27T07:59:06.815Z,1.30
2023-03-27T08:01:35.706Z,0.90
2023-03-27T08:04:05.578Z,2.92
2023-03-27T08:06:36.114Z,1.45
2023-03-27T08:09:08.425Z,1.52
2023-03-27T08:11:37.505Z,2.17
2023-03-27T08:14:07.745Z,1.50
2023-03-27T08:16:37.203Z,1.90
2023-03-27T08:19:06.525Z,1.55
2023-03-27T08:21:39.905Z,1.60
2023-03-27T08:24:11.141Z,1.17
2023-03-27T08:26:59.641Z,2.13
2023-03-27T08:29:28.190Z,1.92
2023-03-27T08:31:56.768Z,1.58
2023-03-27T08:34:26.434Z,3.72
2023-03-27T08:36:54.944Z,1.48
2023-03-27T08:39:26.260Z,1.55
2023-03-27T08:42:03.982Z,1.05
2023-03-27T08:44:38.369Z,1.42
2023-03-27T08:47:20.614Z,1.17
2023-03-27T08:50:26.298Z,1.70
2023-03-27T08:53:15.590Z,1.65
2023-03-27T08:55:46.168Z,1.63
2023-03-27T08:58:34.520Z,1.15
2023-03-27T09:01:31.275Z,0.80
2023-03-27T09:04:17.402Z,1.00
2023-03-27T09:07:00.868Z,0.75
2023-03-27T09:09:46.700Z,0.73
2023-03-27T09:12:39.547Z,6.47
2023-03-27T09:15:13.846Z,1.67
2023-03-27T09:17:49.813Z,1.50
2023-03-27T09:20:24.346Z,1.27
2023-03-27T09:22:59.666Z,1.80
2023-03-27T09:26:01.056Z,0.65
2023-03-27T09:29:03.028Z,1.75
2023-03-27T09:31:40.664Z,1.23
2023-03-27T09:34:21.387Z,1.45
2023-03-27T09:36:49.970Z,0.68
2023-03-27T09:39:24.126Z,0.80
2023-03-27T09:42:16.535Z,0.88
2023-03-27T09:44:51.338Z,1.23
2023-03-27T09:50:02.033Z,0.80
2023-03-27T09:52:48.379Z,1.02
2023-03-27T09:55:31.008Z,0.95
2023-03-27T10:00:46.418Z,0.50
2023-03-27T10:03:18.549Z,1.60
2023-03-27T10:06:07.734Z,1.20
2023-03-27T10:08:50.361Z,1.13
2023-03-27T10:11:28.539Z,1.20
2023-03-27T10:14:11.834Z,1.65
2023-03-27T10:16:42.581Z,1.00
2023-03-27T10:19:25.218Z,1.50
2023-03-27T10:21:56.390Z,0.93
2023-03-27T10:24:34.429Z,0.90
2023-03-27T10:27:20.036Z,0.80
2023-03-27T10:30:30.836Z,0.70
2023-03-27T10:33:29.699Z,1.00
2023-03-27T10:36:12.415Z,1.23
2023-03-27T10:38:43.984Z,1.35
2023-03-27T10:41:37.576Z,1.03
2023-03-27T10:44:14.923Z,1.10
2023-03-27T10:46:50.558Z,0.82
2023-03-27T10:49:32.343Z,1.25
2023-03-27T10:52:16.868Z,1.25
2023-03-27T10:55:30.269Z,1.02
2023-03-27T10:58:05.472Z,0.93
2023-03-27T11:00:43.416Z,0.75
2023-03-27T11:03:28.071Z,0.75
2023-03-27T11:06:07.251Z,0.70
2023-03-27T11:08:53.002Z,1.00
2023-03-27T11:11:30.636Z,0.77
2023-03-27T11:14:05.679Z,1.13
2023-03-27T11:16:39.323Z,0.85
2023-03-27T11:19:39.163Z,1.10
2023-03-27T11:22:33.328Z,0.60
2023-03-27T11:25:14.183Z,0.85
2023-03-27T11:27:48.371Z,0.70
2023-03-27T11:30:39.146Z,0.63
2023-03-27T11:33:28.657Z,0.57
2023-03-27T11:36:17.556Z,0.28
2023-03-27T11:39:02.851Z,0.60
2023-03-27T11:41:32.444Z,0.80
2023-03-27T11:44:04.026Z,0.57
2023-03-27T11:47:36.760Z,0.63
2023-03-27T11:50:32.534Z,1.08
2023-03-27T11:56:38.707Z,0.80
2023-03-27T11:59:54.598Z,0.70
2023-03-27T12:02:50.059Z,0.60
2023-03-27T12:05:34.179Z,1.00
2023-03-27T12:08:13.964Z,0.70
2023-03-27T12:10:50.439Z,0.52
2023-03-27T12:14:17.742Z,1.00
2023-03-27T12:17:22.510Z,1.50
2023-03-27T12:20:51.961Z,1.05
2023-03-27T12:23:40.070Z,1.60
2023-03-27T12:27:05.313Z,2.10
2023-03-27T12:30:07.750Z,1.50
2023-03-27T12:33:00.328Z,1.55
2023-03-27T12:35:32.780Z,1.23
2023-03-27T12:38:04.100Z,1.35
2023-03-27T12:40:41.845Z,1.10
2023-03-27T12:43:29.449Z,0.95
2023-03-27T12:46:31.643Z,0.73
2023-03-27T12:49:05.266Z,0.60
2023-03-27T12:51:44.427Z,0.65
2023-03-27T12:54:26.833Z,0.63
2023-03-27T12:57:06.605Z,0.75
2023-03-27T12:59:39.316Z,0.70
2023-03-27T13:02:56.352Z,0.52
2023-03-27T13:05:44.892Z,0.90
2023-03-27T13:08:49.670Z,1.55
2023-03-27T13:11:58.171Z,0.68
2023-03-27T13:15:18.543Z,0.50
2023-03-27T13:18:10.894Z,0.52
2023-03-27T13:20:49.317Z,0.60
2023-03-27T13:23:35.294Z,0.55
2023-03-27T13:26:23.702Z,0.50
2023-03-27T13:28:54.426Z,0.88
2023-03-27T13:32:02.005Z,0.55
2023-03-27T13:34:43.551Z,1.15
2023-03-27T13:37:54.333Z,0.95
2023-03-27T13:40:36.507Z,1.13
2023-03-27T13:43:23.900Z,1.33
2023-03-27T13:46:01.738Z,0.60
2023-03-27T13:49:22.170Z,0.50
2023-03-27T13:53:06.467Z,0.50
2023-03-27T13:56:44.973Z,0.60
2023-03-27T13:59:59.873Z,1.65
2023-03-27T14:03:34.946Z,0.73
2023-03-27T14:06:45.594Z,0.60
2023-03-27T14:09:27.426Z,0.40
2023-03-27T14:12:26.398Z,0.50
2023-03-27T14:15:33.533Z,0.50
2023-03-27T14:19:06.834Z,0.57
2023-03-27T14:21:53.416Z,0.50
2023-03-27T14:24:33.639Z,0.40
2023-03-27T14:27:18.466Z,0.32
2023-03-27T14:29:49.463Z,0.30
2023-03-27T14:32:19.360Z,1.23
2023-03-27T14:34:54.328Z,0.50
2023-03-27T14:37:44.852Z,0.57
2023-03-27T14:40:31.758Z,0.85
2023-03-27T14:43:07.928Z,0.60
2023-03-27T14:45:41.119Z,0.80
2023-03-27T14:48:22.477Z,0.50
2023-03-27T14:50:55.860Z,0.50
2023-03-27T14:53:31.266Z,0.57
2023-03-27T14:56:30.402Z,0.98
2023-03-27T14:59:02.002Z,0.50
2023-03-27T15:01:42.205Z,0.60
2023-03-27T15:04:14.049Z,0.73
2023-03-27T15:06:44.353Z,0.85
2023-03-27T15:09:24.306Z,1.35
2023-03-27T15:12:12.586Z,0.57
2023-03-27T15:14:42.354Z,0.77
2023-03-27T15:17:15.812Z,0.50
2023-03-27T15:19:48.996Z,1.42
2023-03-27T15:22:24.350Z,0.45
2023-03-27T15:24:57.526Z,0.82
2023-03-27T15:27:31.702Z,0.95
2023-03-27T15:30:04.566Z,0.60
2023-03-27T15:32:42.549Z,0.70
2023-03-27T15:35:17.990Z,0.47
2023-03-27T15:37:46.767Z,0.60
2023-03-27T15:40:42.775Z,0.63
2023-03-27T15:43:30.905Z,0.80
2023-03-27T15:46:15.262Z,0.80
2023-03-27T15:48:45.565Z,1.10
2023-03-27T15:51:28.607Z,1.15
2023-03-27T15:53:57.622Z,0.95
2023-03-27T15:56:29.550Z,1.15
2023-03-27T15:59:03.354Z,1.50
2023-03-27T16:01:36.155Z,3.83
2023-03-27T16:04:08.913Z,1.92
2023-03-27T16:06:40.850Z,1.70
2023-03-27T16:09:24.538Z,0.80
2023-03-27T16:11:55.127Z,1.20
2023-03-27T16:14:31.224Z,1.40
2023-03-27T16:17:19.630Z,1.02
2023-03-27T16:19:54.786Z,1.40
2023-03-27T16:22:29.128Z,1.25
2023-03-27T16:24:58.628Z,1.40
2023-03-27T16:27:32.699Z,1.02
2023-03-27T16:30:02.762Z,1.20
2023-03-27T16:32:31.721Z,0.90
2023-03-27T16:35:01.834Z,0.95
2023-03-27T16:37:30.522Z,0.70
2023-03-27T16:39:59.152Z,0.40
2023-03-27T16:42:27.371Z,0.50
2023-03-27T16:44:56.137Z,0.75
2023-03-27T16:47:25.962Z,0.50
2023-03-27T16:50:10.450Z,1.10
2023-03-27T16:52:39.534Z,0.73
2023-03-27T16:55:09.185Z,0.68
2023-03-27T16:57:37.841Z,0.60
2023-03-27T17:00:11.648Z,0.73
2023-03-27T17:02:41.433Z,0.73
2023-03-27T17:05:10.913Z,0.60
2023-03-27T17:07:41.650Z,0.52
2023-03-27T17:10:11.174Z,0.70
2023-03-27T17:12:39.485Z,0.75
2023-03-27T17:15:10.111Z,0.82
2023-03-27T17:17:39.975Z,0.43
2023-03-27T17:20:09.876Z,0.45
2023-03-27T17:22:38.425Z,0.40
2023-03-27T17:25:09.876Z,0.85
2023-03-27T17:27:38.449Z,0.52
2023-03-27T17:30:08.445Z,0.50
2023-03-27T17:32:37.103Z,0.80
2023-03-27T17:35:08.096Z,0.55
2023-03-27T17:37:36.913Z,0.80
2023-03-27T17:40:09.848Z,0.40
2023-03-27T17:42:38.976Z,0.85
2023-03-27T17:45:08.117Z,0.50
2023-03-27T17:47:36.423Z,0.55
2023-03-27T17:50:07.894Z,0.60
2023-03-27T17:52:36.123Z,0.70
2023-03-27T17:55:04.716Z,0.43
2023-03-27T17:57:33.322Z,0.43
2023-03-27T18:00:06.548Z,1.35
2023-03-27T18:02:41.265Z,0.65
2023-03-27T18:05:11.172Z,0.68
2023-03-27T18:07:39.718Z,0.75
2023-03-27T18:10:12.539Z,0.93
2023-03-27T18:12:41.042Z,0.43
2023-03-27T18:15:10.481Z,1.17
2023-03-27T18:17:39.127Z,0.40
2023-03-27T18:20:11.068Z,0.60
2023-03-27T18:22:40.238Z,0.70
2023-03-27T18:25:10.772Z,0.55
2023-03-27T18:27:40.874Z,0.55
2023-03-27T18:30:12.229Z,1.85
2023-03-27T18:32:42.744Z,0.63
2023-03-27T18:35:15.271Z,0.80
2023-03-27T18:37:45.021Z,0.65
2023-03-27T18:40:18.984Z,0.80
2023-03-27T18:42:47.588Z,1.10
2023-03-27T18:45:17.943Z,0.93
2023-03-27T18:47:46.479Z,0.77
2023-03-27T18:50:16.714Z,0.77
2023-03-27T18:52:45.373Z,0.65
2023-03-27T18:55:13.670Z,0.82
2023-03-27T18:57:44.722Z,0.80
2023-03-27T19:00:18.385Z,0.80
2023-03-27T19:02:47.869Z,0.85
2023-03-27T19:05:18.149Z,1.08
2023-03-27T19:07:46.924Z,0.90
2023-03-27T19:10:15.262Z,0.60
2023-03-27T19:12:47.289Z,0.82
2023-03-27T19:15:36.887Z,0.70
2023-03-27T19:18:30.063Z,1.20
2023-03-27T19:21:16.247Z,0.80
2023-03-27T19:23:49.418Z,1.27
2023-03-27T19:26:21.563Z,0.70
2023-03-27T19:28:50.127Z,1.02
2023-03-27T19:31:18.389Z,0.95
2023-03-27T19:33:46.969Z,1.08
2023-03-27T19:36:17.075Z,1.20
2023-03-27T19:38:45.851Z,1.08
2023-03-27T19:41:14.172Z,1.25
2023-03-27T19:43:42.717Z,1.48
2023-03-27T19:48:42.448Z,1.33
2023-03-27T19:51:19.679Z,1.05
2023-03-27T19:53:52.014Z,1.50
2023-03-27T19:56:23.163Z,1.10
2023-03-27T19:58:52.212Z,1.33
2023-03-27T20:01:21.355Z,1.00
2023-03-27T20:03:50.165Z,0.70
2023-03-27T20:06:20.482Z,0.73
2023-03-27T20:08:49.245Z,1.20
2023-03-27T20:11:18.126Z,1.20
2023-03-27T20:13:56.095Z,0.90
2023-03-27T20:16:27.229Z,0.80
2023-03-27T20:19:04.512Z,0.68
2023-03-27T20:21:37.506Z,1.05
2023-03-27T20:24:10.377Z,0.85
2023-03-27T20:26:47.982Z,0.95
2023-03-27T20:29:21.782Z,1.02
2023-03-27T20:31:50.407Z,1.17
2023-03-27T20:34:22.390Z,1.20
2023-03-27T20:36:54.794Z,0.68
2023-03-27T20:39:44.636Z,1.40
2023-03-27T20:42:15.868Z,0.60
2023-03-27T20:44:45.667Z,1.02
2023-03-27T20:47:18.971Z,1.17
2023-03-27T20:52:22.551Z,1.05
2023-03-27T20:54:51.662Z,0.68
2023-03-27T20:57:22.503Z,0.80
2023-03-27T20:59:51.194Z,1.27
2023-03-27T21:02:23.465Z,0.75
2023-03-27T21:04:52.288Z,0.73
2023-03-27T21:07:21.814Z,1.48
2023-03-27T21:09:50.518Z,0.63
2023-03-27T21:12:19.034Z,1.20
2023-03-27T21:14:47.594Z,1.30
2023-03-27T21:17:15.995Z,1.35
2023-03-27T21:19:44.503Z,1.00
2023-03-27T21:22:12.988Z,0.75
2023-03-27T21:24:43.069Z,1.27
2023-03-27T21:27:11.572Z,1.83
2023-03-27T21:29:40.132Z,1.10
2023-03-27T21:32:09.173Z,1.33
2023-03-27T21:34:37.869Z,1.17
2023-03-27T21:37:06.128Z,1.65
2023-03-27T21:39:34.777Z,0.93
2023-03-27T21:42:04.650Z,0.82
2023-03-27T21:44:33.163Z,1.00
2023-03-27T21:47:01.649Z,1.15
2023-03-27T21:49:30.251Z,1.20
2023-03-27T21:51:58.738Z,1.83
2023-03-27T21:54:27.238Z,1.67
2023-03-27T21:56:55.789Z,1.45
2023-03-27T21:59:27.149Z,1.27
2023-03-27T22:01:56.034Z,1.48
2023-03-27T22:04:24.547Z,0.80
2023-03-27T22:06:53.442Z,1.33
2023-03-27T22:09:21.847Z,1.23
2023-03-27T22:11:50.549Z,0.95
2023-03-27T22:14:19.055Z,1.08
2023-03-27T22:16:48.760Z,0.95
2023-03-27T22:19:17.270Z,1.05
2023-03-27T22:21:45.989Z,0.93
2023-03-27T22:24:14.542Z,1.02
2023-03-27T22:26:43.224Z,0.57
2023-03-27T22:29:11.773Z,1.02
2023-03-27T22:31:40.382Z,0.80
2023-03-27T22:34:10.616Z,0.88
2023-03-27T22:36:39.296Z,1.70
2023-03-27T22:39:07.809Z,1.05
2023-03-27T22:41:36.468Z,1.58
2023-03-27T22:44:05.047Z,0.63
2023-03-27T22:46:34.485Z,1.13
2023-03-27T22:49:03.035Z,0.57
2023-03-27T22:51:33.358Z,1.00
2023-03-27T22:54:01.904Z,1.35
2023-03-27T22:56:30.286Z,0.98
2023-03-27T22:58:58.803Z,0.77
2023-03-27T23:01:27.403Z,1.00
2023-03-27T23:03:56.047Z,0.93
2023-03-27T23:06:25.190Z,0.93
2023-03-27T23:08:54.766Z,0.93
2023-03-27T23:11:23.262Z,1.13
2023-03-27T23:13:51.855Z,1.10
2023-03-27T23:16:20.251Z,0.80
2023-03-27T23:18:48.737Z,1.27
2023-03-27T23:21:17.865Z,0.95
2023-03-27T23:23:47.514Z,1.20
2023-03-27T23:26:18.040Z,1.00
2023-03-27T23:28:46.624Z,0.75
2023-03-27T23:31:17.365Z,0.80
2023-03-27T23:33:49.193Z,1.20
2023-03-27T23:36:21.487Z,1.45
2023-03-27T23:38:51.434Z,0.88
2023-03-27T23:41:21.634Z,0.77
2023-03-27T23:43:50.424Z,2.00
2023-03-27T23:46:19.109Z,1.02
2023-03-27T23:48:47.682Z,1.17
2023-03-27T23:51:17.385Z,1.50
2023-03-27T23:53:46.105Z,0.80
2023-03-27T23:56:14.730Z,1.35
2023-03-27T23:58:44.427Z,1.50
